Terminal Aerodrome Forecast
Issued by NWS

Current Version | Previous Version | Graphics & Text | Print | Product List | Glossary On
Versions: 1 2 3 4 5 6 7 8 9 10 11 12 13 14 15 16 17 18 19 20 21 22 23 24 25 26 27 28
580
FTUS41 KRLX 250859 AAA
TAFCKB
TAF AMD
KCKB 250859Z 2509/2606 16009G16KT P6SM FEW070 FEW080 BKN100
     FM251100 22014G35KT 3SM -SHRA OVC025
     FM251200 21009G27KT 5SM SHRA OVC025
     FM251300 23012G23KT P6SM OVC030
     FM251700 24010G20KT P6SM OVC040
     FM252300 27012G22KT P6SM BKN030=

USA.gov is the U.S. government's official web portal to all federal, state and local government web resources and services.